AirNav   Air Wisconsin Up To $57,000 Bonus
 
 1072 users online  

5MI6 TV2 Heliport
Southfield, Michigan, USA

GOING TO SOUTHFIELD?


FAA INFORMATION EFFECTIVE 05 DECEMBER 2019

Location

FAA Identifier: 5MI6
Lat/Long: 42-27-38.1280N 083-13-02.0000W
42-27.635467N 083-13.033333W
42.4605911,-83.2172222
(estimated)
Elevation: 650 ft. / 198.1 m (surveyed)
Variation: 06W (1985)
Time zone: UTC -5 (UTC -4 during Daylight Saving Time)
Zip code: 48075

Heliport Operations

Heliport use: Private use. Permission required prior to landing
Activation date: 09/1980
Control tower: no
ARTCC: CLEVELAND CENTER
FSS: LANSING FLIGHT SERVICE STATION
Attendance: 0600-2400
Wind indicator: lighted
Segmented circle: no

Heliport Communications

WX AWOS-3 at VLL (5 nm N): 119.475 (248-288-4649)
WX ASOS at DET (10 nm E): PHONE 313-371-9696
WX ASOS at PTK (15 nm NW): 125.025 (248-886-8551)
WX ASOS at DTW (16 nm S): PHONE 734-955-5015
WX ASOS at YIP (19 nm SW): PHONE 734-961-6843

Nearby radio navigation aids

VOR radial/distance  VOR name  Freq  Var
DXOr030/16.3DETROIT VOR/DME113.4006W
SVMr082/17.0SALEM VORTAC114.3003W
YQGr312/21.4WINDSOR VOR/DME113.8006W
CRLr026/27.0CARLETON VOR/DME115.7003W
FNTr148/38.3FLINT VORTAC116.9006W

 
NDB name  Hdg/Dist  Freq  Var  ID
GROSSE ILE359/21.841907WRYS .-. -.-- ...
TECUMSEH055/39.223906WTCU - -.-. ..-

Heliport Services

Runway Information

Helipad H1

Dimensions: 60 x 20 ft. / 18 x 6 m
Surface: concrete
Operational restrictions: ALL APPROACHES FROM WEST; ALL TAKEOFFS TO WEST.
Latitude: 42-27.635333N
Longitude: 083-13.033333W
Elevation: 650.0 ft.
Traffic pattern: leftleft

Heliport Ownership and Management from official FAA records

Ownership: Privately-owned
Owner: WJBK-TV2
16550 W. NINE MILE ROAD
SOUTHFIELD, MI 48075
Phone 313-557-2000
Manager: BRIAN CROSSLEY
16550 W. NINE MILE ROAD
SOUTHFIELD, MI 48075
Phone (248) 552-5267

Additional Remarks

E111-4 FOR ALL PILOTS REGARDING ARRIVAL/DEPARTURE ROUTE OPERATIONS AND TWR GUY WIRE LOCATIONS PRIOR TO ANY PILOT'S AUTHORIZATION.
E111-3 ANTENNA TWR GUY WIRES ARE NOT REMOVED AND ARE APPROPRIATELY MAINTAINED; OWNER/OPERATOR CONDUCT A COMPLETE OPERATION BRIEFING.
E111-2 NON-OBSTRUCTING WIND INDICATOR IS MAINTAINED ADJACENT TO TAKEOFF/LANDING AREA; EXISTING ORANGE OBSTRUCTION MARKED BALLS ON THE.
A52-H1 MARKED & LIGHTED TOWER AND GUIDE WIRES VICINITY OF HELIPAD.
FOR CD CTC DETROIT APCH AT 800-499-8181.

Instrument Procedures

There are no published instrument procedures at 5MI6.

Some nearby airports with instrument procedures:

KVLL - Oakland/Troy Airport (5 nm N)
KDET - Coleman A Young Municipal Airport (10 nm E)
1D2 - Canton-Plymouth-Mettetal Airport (13 nm SW)
KPTK - Oakland County International Airport (15 nm NW)
KDTW - Detroit Metropolitan Wayne County Airport (16 nm S)
Y47 - Oakland Southwest Airport (18 nm W)
KMTC - Selfridge Air National Guard Base (19 nm NE)
KYIP - Willow Run Airport (19 nm SW)
 
Loc | Ops | Rwys | IFR | FBO | Links
Com | Nav | Svcs | Stats | Notes
Area around 5MI6 (TV2 Heliport)
 
Road maps at: MapQuest Bing Google
 
Aerial photo
No photo
 
Sectional chart

 
Airport distance calculator
Flying to TV2 Heliport? Find the distance to fly.

From to 5MI6

Sunrise and sunset
Times for 07-Dec-2019
 Local
(UTC-5)
 Zulu
(UTC)
Morning civil twilight07:1812:18
Sunrise07:5012:50
Sunset16:5921:59
Evening civil twilight17:3122:31

Current date and time
Zulu (UTC)  08-Dec-2019 02:20:41
Local (UTC-5)  07-Dec-2019 21:20:41
 
METAR
KVLL 
5nm N 
080156Z AUTO 17003KT 10SM SCT075 OVC100 00/M04 A3033 RMK AO2 T00001040
KDET 
10nm E 
080153Z 17005KT 10SM OVC095 00/M04 A3033 RMK AO2 SLP279 T00001044
KDTW 
15nm S 
080153Z 14005KT 10SM BKN095 BKN250 01/M03 A3033 RMK AO2 SLP278 T00061033
KPTK 
15nm NW 
080153Z 18005KT 10SM FEW070 BKN100 BKN220 M01/M06 A3028 RMK AO2 SLP268 T10111061
CYQG 
16nm SE 
080100Z AUTO 16005KT 9SM OVC100 M01/M04 A3035 RMK SLP287
KYIP 
20nm SW 
080153Z 15005KT 10SM CLR M01/M05 A3032 RMK AO2 SLP274 T10111050 $
TAF
KDET 
10nm E 
071720Z 0718/0818 20005KT P6SM OVC100 FM080200 18010KT P6SM OVC200 FM081400 22013G20KT P6SM OVC015
KDTW 
15nm S 
072040Z 0721/0824 19006KT P6SM OVC090 FM080200 18010KT P6SM OVC200 FM081400 22013G20KT P6SM OVC015
KPTK 
15nm NW 
071720Z 0718/0818 20005KT P6SM OVC100 FM080200 18010KT P6SM OVC150 FM081500 22014G23KT P6SM OVC015
CYQG 
16nm SE 
071738Z 0718/0818 19008KT P6SM BKN100 FM080100 19012KT P6SM SCT120 FM081500 21017G27KT P6SM BKN180 RMK FCST BASED ON AUTO OBS. NXT FCST BY 080000Z
KYIP 
20nm SW 
071720Z 0718/0818 20005KT P6SM OVC100 FM080200 18010KT P6SM OVC200 FM081400 22013G20KT P6SM OVC015
NOTAMs
Click for the latest NOTAMs
NOTAMs are issued by the DoD/FAA and will open in a separate window not controlled by AirNav.

 

 
 

Would you like to see your business listed on this page?

 If your business provides an interesting product or service to pilots, flight crews, aircraft, or users of the TV2 Heliport, you should consider listing it here.  To start the listing process, click on the button below
 
Add a business
 

Other Pages about TV2 Heliport

Update a link
 
Copyright © AirNav, LLC. All rights reserved. Privacy Policy  Contact